Terminal Aerodrome Forecast
Issued by NWS Wilmington, NC

Home | Current Version | Previous Version | Text Only | Print | Product List | Glossary On
Versions: 1 2 3 4 5 6 7 8 9 10 11 12 13 14 15
000
FTUS42 KILM 261700
TAFILM
TAF
KILM 261720Z 2618/2718 29011KT P6SM SCT020 SCT060
     FM262200 31010G17KT P6SM VCSH BKN030 BKN060
      TEMPO 2700/2704 -SHRA
     FM270600 32012G18KT P6SM BKN020 BKN050=

USA.gov is the U.S. government's official web portal to all federal, state and local government web resources and services.